createdAt,value
2022-07-29T00:00:01.048Z,78.90
2022-07-29T00:02:28.894Z,79.56
2022-07-29T00:04:55.677Z,79.81
2022-07-29T00:07:22.370Z,79.31
2022-07-29T00:09:51.110Z,78.89
2022-07-29T00:12:25.176Z,78.98
2022-07-29T00:14:54.269Z,79.05
2022-07-29T00:17:20.877Z,79.60
2022-07-29T00:19:47.506Z,80.06
2022-07-29T00:22:14.120Z,80.21
2022-07-29T00:24:40.701Z,80.83
2022-07-29T00:27:07.326Z,81.02
2022-07-29T00:29:34.912Z,81.37
2022-07-29T00:32:02.766Z,81.86
2022-07-29T00:34:49.680Z,82.30
2022-07-29T00:37:16.358Z,83.01
2022-07-29T00:39:43.219Z,82.84
2022-07-29T00:42:10.796Z,83.11
2022-07-29T00:44:39.428Z,84.62
2022-07-29T00:47:06.553Z,85.50
2022-07-29T00:49:34.596Z,86.66
2022-07-29T00:52:06.390Z,86.63
2022-07-29T00:54:34.833Z,86.84
2022-07-29T00:57:01.891Z,89.34
2022-07-29T00:59:34.605Z,88.16
2022-07-29T01:02:03.671Z,90.06
2022-07-29T01:04:31.893Z,91.30
2022-07-29T01:06:58.941Z,92.35
2022-07-29T01:09:42.964Z,92.34
2022-07-29T01:12:20.028Z,94.53
2022-07-29T01:14:48.597Z,95.78
2022-07-29T01:17:25.000Z,96.09
2022-07-29T01:20:03.194Z,97.05
2022-07-29T01:22:35.557Z,96.35
2022-07-29T01:25:29.892Z,98.77
2022-07-29T01:27:56.415Z,98.77
2022-07-29T01:30:25.881Z,100.00
2022-07-29T01:32:59.827Z,100.00
2022-07-29T01:35:32.563Z,98.87
2022-07-29T01:38:23.167Z,99.88
2022-07-29T01:40:59.741Z,99.42
2022-07-29T01:43:41.178Z,100.00
2022-07-29T01:46:15.610Z,100.00
2022-07-29T01:48:54.467Z,100.00
2022-07-29T01:51:28.272Z,100.00
2022-07-29T01:54:26.158Z,100.00
2022-07-29T01:56:54.749Z,100.00
2022-07-29T01:59:22.186Z,100.00
2022-07-29T02:01:54.507Z,100.00
2022-07-29T02:04:29.457Z,100.00
2022-07-29T02:07:01.607Z,100.00
2022-07-29T02:09:30.806Z,100.00
2022-07-29T02:12:00.431Z,100.00
2022-07-29T02:14:30.813Z,100.00
2022-07-29T02:17:01.174Z,100.00
2022-07-29T02:19:29.521Z,100.00
2022-07-29T02:21:58.708Z,100.00
2022-07-29T02:24:27.430Z,100.00
2022-07-29T02:26:56.554Z,100.00
2022-07-29T02:29:27.183Z,100.00
2022-07-29T02:31:55.237Z,100.00
2022-07-29T02:34:22.879Z,100.00
2022-07-29T02:36:50.850Z,99.95
2022-07-29T02:39:19.212Z,99.78
2022-07-29T02:41:49.442Z,98.92
2022-07-29T02:44:22.440Z,98.78
2022-07-29T02:47:07.508Z,98.82
2022-07-29T02:50:09.400Z,98.66
2022-07-29T02:52:38.803Z,98.53
2022-07-29T02:55:27.296Z,98.38
2022-07-29T02:58:09.494Z,98.17
2022-07-29T03:00:40.229Z,98.43
2022-07-29T03:03:12.328Z,98.14
2022-07-29T03:05:40.452Z,97.77
2022-07-29T03:08:10.469Z,98.47
2022-07-29T03:10:39.949Z,98.33
2022-07-29T03:13:07.479Z,98.26
2022-07-29T03:15:34.571Z,98.34
2022-07-29T03:18:01.745Z,98.48
2022-07-29T03:20:28.473Z,98.09
2022-07-29T03:22:55.213Z,98.17
2022-07-29T03:25:21.940Z,98.09
2022-07-29T03:27:49.287Z,97.73
2022-07-29T03:30:21.617Z,97.77
2022-07-29T03:32:49.362Z,97.77
2022-07-29T03:35:18.689Z,98.17
2022-07-29T03:37:46.046Z,98.24
2022-07-29T03:40:18.318Z,98.23
2022-07-29T03:42:46.747Z,98.10
2022-07-29T03:45:16.560Z,97.71
2022-07-29T03:47:50.622Z,97.79
2022-07-29T03:50:20.486Z,97.87
2022-07-29T03:52:48.497Z,97.87
2022-07-29T03:55:16.320Z,97.82
2022-07-29T03:57:45.699Z,97.32
2022-07-29T04:00:13.205Z,96.95
2022-07-29T04:02:41.031Z,96.68
2022-07-29T04:05:13.605Z,96.75
2022-07-29T04:07:41.195Z,96.82
2022-07-29T04:10:08.851Z,96.60
2022-07-29T04:12:36.134Z,96.70
2022-07-29T04:15:04.910Z,96.85
2022-07-29T04:17:31.712Z,96.76
2022-07-29T04:19:58.310Z,96.64
2022-07-29T04:22:24.986Z,95.80
2022-07-29T04:24:51.869Z,95.40
2022-07-29T04:27:18.570Z,95.62
2022-07-29T04:29:56.530Z,94.73
2022-07-29T04:32:25.188Z,94.29
2022-07-29T04:34:57.768Z,94.06
2022-07-29T04:37:24.643Z,94.12
2022-07-29T04:39:51.649Z,93.84
2022-07-29T04:42:18.255Z,93.46
2022-07-29T04:44:53.316Z,93.15
2022-07-29T04:47:20.032Z,92.46
2022-07-29T04:49:46.625Z,92.32
2022-07-29T04:52:13.236Z,92.11
2022-07-29T04:54:39.838Z,92.00
2022-07-29T04:57:06.434Z,91.93
2022-07-29T04:59:33.038Z,91.31
2022-07-29T05:01:59.757Z,90.84
2022-07-29T05:04:26.451Z,90.04
2022-07-29T05:06:53.089Z,89.63
2022-07-29T05:09:19.671Z,88.99
2022-07-29T05:11:46.319Z,88.19
2022-07-29T05:14:14.079Z,87.55
2022-07-29T05:16:41.289Z,87.16
2022-07-29T05:19:12.289Z,86.29
2022-07-29T05:21:40.955Z,85.34
2022-07-29T05:24:07.633Z,84.75
2022-07-29T05:26:34.265Z,83.41
2022-07-29T05:29:00.839Z,82.25
2022-07-29T05:31:27.500Z,82.13
2022-07-29T05:33:54.245Z,81.86
2022-07-29T05:36:20.868Z,81.22
2022-07-29T05:38:47.447Z,80.82
2022-07-29T05:41:14.127Z,80.50
2022-07-29T05:43:40.749Z,79.83
2022-07-29T05:46:07.365Z,79.77
2022-07-29T05:48:34.406Z,78.91
2022-07-29T05:51:01.255Z,78.84
2022-07-29T05:53:28.278Z,78.42
2022-07-29T05:55:54.939Z,77.35
2022-07-29T05:58:21.626Z,76.98
2022-07-29T06:00:48.290Z,76.33
2022-07-29T06:03:15.057Z,76.18
2022-07-29T06:05:41.847Z,75.26
2022-07-29T06:08:08.610Z,75.65
2022-07-29T06:10:38.459Z,76.17
2022-07-29T06:13:05.067Z,74.54
2022-07-29T06:15:31.783Z,73.78
2022-07-29T06:17:59.207Z,72.77
2022-07-29T06:20:31.279Z,72.54
2022-07-29T06:22:58.665Z,72.97
2022-07-29T06:25:25.301Z,72.86
2022-07-29T06:27:51.876Z,72.24
2022-07-29T06:30:18.595Z,73.08
2022-07-29T06:32:45.269Z,72.09
2022-07-29T06:35:37.677Z,72.24
2022-07-29T06:37:59.717Z,72.10
2022-07-29T06:41:02.258Z,71.59
2022-07-29T06:43:32.428Z,72.13
2022-07-29T06:46:02.328Z,71.12
2022-07-29T06:48:29.981Z,70.53
2022-07-29T06:50:56.813Z,69.25
2022-07-29T06:53:23.687Z,68.66
2022-07-29T06:55:50.430Z,68.09
2022-07-29T06:58:18.953Z,68.06
2022-07-29T07:00:46.092Z,66.53
2022-07-29T07:03:12.837Z,66.10
2022-07-29T07:05:39.922Z,65.15
2022-07-29T07:08:06.999Z,64.32
2022-07-29T07:10:34.073Z,63.67
2022-07-29T07:13:01.734Z,63.18
2022-07-29T07:15:38.859Z,62.70
2022-07-29T07:18:07.138Z,61.77
2022-07-29T07:20:34.969Z,62.08
2022-07-29T07:23:01.736Z,60.84
2022-07-29T07:25:28.952Z,60.44
2022-07-29T07:27:55.634Z,61.36
2022-07-29T07:30:22.375Z,60.25
2022-07-29T07:32:49.073Z,58.46
2022-07-29T07:35:15.760Z,59.09
2022-07-29T07:37:42.439Z,58.41
2022-07-29T07:40:12.599Z,58.95
2022-07-29T07:42:46.541Z,58.51
2022-07-29T07:45:15.857Z,57.47
2022-07-29T07:47:43.535Z,58.85
2022-07-29T07:50:18.076Z,59.10
2022-07-29T07:52:58.606Z,58.57
2022-07-29T07:55:26.570Z,57.90
2022-07-29T07:57:53.933Z,57.15
2022-07-29T08:00:23.040Z,56.43
2022-07-29T08:02:51.209Z,55.84
2022-07-29T08:05:18.912Z,56.08
2022-07-29T08:07:47.603Z,54.88
2022-07-29T08:10:36.455Z,55.49
2022-07-29T08:13:07.951Z,55.67
2022-07-29T08:15:35.132Z,54.70
2022-07-29T08:18:08.038Z,53.22
2022-07-29T08:20:36.594Z,54.79
2022-07-29T08:23:05.431Z,54.64
2022-07-29T08:25:32.157Z,53.99
2022-07-29T08:28:01.258Z,54.70
2022-07-29T08:30:28.475Z,53.25
2022-07-29T08:32:55.997Z,52.82
2022-07-29T08:35:24.285Z,54.52
2022-07-29T08:37:51.589Z,54.34
2022-07-29T08:40:18.719Z,54.97
2022-07-29T08:42:46.334Z,53.36
2022-07-29T08:45:14.489Z,52.98
2022-07-29T08:47:41.117Z,51.81
2022-07-29T08:50:09.646Z,50.97
2022-07-29T08:52:41.440Z,51.94
2022-07-29T08:55:09.788Z,51.38
2022-07-29T08:57:37.446Z,50.83
2022-07-29T09:00:11.880Z,48.39
2022-07-29T09:02:47.554Z,49.45
2022-07-29T09:05:15.115Z,50.42
2022-07-29T09:07:44.285Z,50.58
2022-07-29T09:10:11.205Z,50.34
2022-07-29T09:12:38.430Z,50.23
2022-07-29T09:15:05.580Z,51.07
2022-07-29T09:17:51.232Z,51.83
2022-07-29T09:20:20.507Z,53.42
2022-07-29T09:22:51.831Z,52.34
2022-07-29T09:25:34.602Z,50.92
2022-07-29T09:28:12.478Z,51.35
2022-07-29T09:31:06.510Z,49.95
2022-07-29T09:33:36.628Z,47.65
2022-07-29T09:36:08.259Z,47.04
2022-07-29T09:38:38.422Z,46.46
2022-07-29T09:41:06.880Z,45.13
2022-07-29T09:43:34.418Z,44.96
2022-07-29T09:46:14.393Z,44.88
2022-07-29T09:48:41.192Z,44.13
2022-07-29T09:51:25.600Z,44.02
2022-07-29T09:53:56.792Z,42.56
2022-07-29T09:56:44.410Z,44.80
2022-07-29T09:59:13.020Z,46.79
2022-07-29T10:01:39.646Z,47.14
2022-07-29T10:04:06.577Z,45.89
2022-07-29T10:06:33.360Z,42.74
2022-07-29T10:09:12.414Z,40.33
2022-07-29T10:11:49.642Z,40.79
2022-07-29T10:14:17.250Z,41.47
2022-07-29T10:16:44.379Z,40.57
2022-07-29T10:19:11.414Z,39.34
2022-07-29T10:21:40.791Z,38.80
2022-07-29T10:24:14.814Z,36.85
2022-07-29T10:26:42.555Z,36.39
2022-07-29T10:29:09.148Z,35.80
2022-07-29T10:31:50.666Z,39.15
2022-07-29T10:34:54.786Z,39.69
2022-07-29T10:37:47.309Z,39.19
2022-07-29T10:40:41.434Z,37.91
2022-07-29T10:43:33.806Z,37.51
2022-07-29T10:46:01.571Z,38.12
2022-07-29T10:48:29.355Z,41.90
2022-07-29T10:51:05.533Z,40.96
2022-07-29T10:53:54.064Z,41.03
2022-07-29T10:56:32.314Z,42.69
2022-07-29T10:59:21.752Z,41.14
2022-07-29T11:01:54.279Z,40.89
2022-07-29T11:04:44.374Z,38.83
2022-07-29T11:07:12.921Z,37.57
2022-07-29T11:09:41.840Z,37.77
2022-07-29T11:12:39.332Z,37.08
2022-07-29T11:15:07.992Z,37.52
2022-07-29T11:17:53.683Z,36.80
2022-07-29T11:20:38.926Z,36.91
2022-07-29T11:23:33.347Z,38.69
2022-07-29T11:26:23.211Z,37.61
2022-07-29T11:28:56.070Z,38.28
2022-07-29T11:31:37.924Z,37.69
2022-07-29T11:34:27.954Z,34.96
2022-07-29T11:37:14.334Z,35.96
2022-07-29T11:40:01.535Z,35.60
2022-07-29T11:42:32.480Z,35.47
2022-07-29T11:45:43.337Z,37.01
2022-07-29T11:48:05.380Z,36.72
2022-07-29T11:50:45.961Z,35.04
2022-07-29T11:53:15.444Z,34.50
2022-07-29T11:55:50.928Z,34.67
2022-07-29T11:58:25.190Z,35.34
2022-07-29T12:00:53.106Z,39.60
2022-07-29T12:03:35.601Z,38.45
2022-07-29T12:06:12.291Z,38.41
2022-07-29T12:08:44.642Z,36.77
2022-07-29T12:11:20.810Z,36.74
2022-07-29T12:13:49.282Z,36.16
2022-07-29T12:16:25.626Z,35.51
2022-07-29T12:19:05.761Z,34.27
2022-07-29T12:21:56.800Z,34.52
2022-07-29T12:24:26.772Z,35.52
2022-07-29T12:26:58.599Z,35.79
2022-07-29T12:29:33.561Z,35.97
2022-07-29T12:32:02.358Z,36.99
2022-07-29T12:34:31.271Z,37.29
2022-07-29T12:36:58.056Z,38.37
2022-07-29T12:39:27.504Z,38.19
2022-07-29T12:42:04.716Z,37.86
2022-07-29T12:44:49.125Z,36.12
2022-07-29T12:47:17.043Z,35.19
2022-07-29T12:49:43.708Z,33.90
2022-07-29T12:52:33.845Z,33.16
2022-07-29T12:55:01.802Z,33.67
2022-07-29T12:57:29.191Z,33.47
2022-07-29T13:00:05.232Z,34.40
2022-07-29T13:02:31.951Z,35.09
2022-07-29T13:05:02.333Z,35.94
2022-07-29T13:07:54.570Z,36.06
2022-07-29T13:10:24.213Z,36.46
2022-07-29T13:13:04.693Z,36.90
2022-07-29T13:15:31.634Z,36.81
2022-07-29T13:17:59.268Z,34.38
2022-07-29T13:20:30.848Z,33.46
2022-07-29T13:23:01.610Z,34.57
2022-07-29T13:25:32.764Z,36.66
2022-07-29T13:28:01.235Z,37.25
2022-07-29T13:30:28.122Z,39.00
2022-07-29T13:32:56.050Z,40.60
2022-07-29T13:35:22.683Z,40.93
2022-07-29T13:37:49.246Z,40.37
2022-07-29T13:40:18.761Z,39.51
2022-07-29T13:42:46.243Z,37.72
2022-07-29T13:45:13.732Z,37.38
2022-07-29T13:47:43.596Z,36.12
2022-07-29T13:50:14.439Z,34.53
2022-07-29T13:52:41.065Z,34.83
2022-07-29T13:55:09.186Z,35.62
2022-07-29T13:57:36.465Z,36.35
2022-07-29T14:00:03.638Z,37.45
2022-07-29T14:02:30.323Z,36.55
2022-07-29T14:04:56.998Z,35.60
2022-07-29T14:07:23.770Z,36.24
2022-07-29T14:09:51.121Z,36.62
2022-07-29T14:12:17.828Z,36.61
2022-07-29T14:14:44.794Z,35.75
2022-07-29T14:17:14.125Z,37.19
2022-07-29T14:19:40.839Z,36.20
2022-07-29T14:22:09.653Z,34.70
2022-07-29T14:24:38.129Z,33.58
2022-07-29T14:27:07.128Z,32.09
2022-07-29T14:29:37.455Z,32.57
2022-07-29T14:32:07.182Z,34.53
2022-07-29T14:34:34.489Z,36.30
2022-07-29T14:37:01.101Z,37.75
2022-07-29T14:39:31.774Z,38.11
2022-07-29T14:42:01.756Z,38.20
2022-07-29T14:44:32.264Z,39.19
2022-07-29T14:47:08.079Z,39.62
2022-07-29T14:49:35.875Z,38.16
2022-07-29T14:52:02.829Z,37.24
2022-07-29T14:54:29.434Z,36.87
2022-07-29T14:56:58.330Z,37.12
2022-07-29T14:59:25.835Z,37.15
2022-07-29T15:01:52.569Z,37.21
2022-07-29T15:04:19.250Z,35.82
2022-07-29T15:06:45.883Z,36.12
2022-07-29T15:09:12.882Z,34.93
2022-07-29T15:11:39.537Z,34.22
2022-07-29T15:14:07.159Z,34.86
2022-07-29T15:16:36.143Z,35.07
2022-07-29T15:19:02.822Z,33.82
2022-07-29T15:21:29.485Z,33.31
2022-07-29T15:23:56.205Z,33.96
2022-07-29T15:26:22.887Z,33.20
2022-07-29T15:28:49.504Z,33.57
2022-07-29T15:31:16.208Z,32.15
2022-07-29T15:33:42.924Z,31.75
2022-07-29T15:36:09.703Z,32.96
2022-07-29T15:38:41.635Z,35.01
2022-07-29T15:41:09.134Z,34.05
2022-07-29T15:43:36.242Z,33.49
2022-07-29T15:46:21.566Z,33.28
2022-07-29T15:48:48.418Z,32.66
2022-07-29T15:51:16.130Z,31.58
2022-07-29T15:53:42.743Z,31.64
2022-07-29T15:56:09.372Z,30.97
2022-07-29T15:58:35.979Z,30.79
2022-07-29T16:01:02.683Z,30.63
2022-07-29T16:03:30.134Z,30.35
2022-07-29T16:05:57.283Z,31.33
2022-07-29T16:08:23.899Z,31.28
2022-07-29T16:10:50.710Z,31.03
2022-07-29T16:13:23.193Z,30.60
2022-07-29T16:16:02.968Z,31.39
2022-07-29T16:18:31.125Z,31.69
2022-07-29T16:20:58.013Z,31.70
2022-07-29T16:23:24.830Z,30.53
2022-07-29T16:25:59.673Z,31.17
2022-07-29T16:28:29.109Z,31.18
2022-07-29T16:30:55.797Z,31.18
2022-07-29T16:33:22.496Z,31.08
2022-07-29T16:35:52.411Z,30.63
2022-07-29T16:38:19.589Z,31.32
2022-07-29T16:40:46.299Z,31.19
2022-07-29T16:43:14.151Z,32.06
2022-07-29T16:45:46.481Z,32.05
2022-07-29T16:48:18.168Z,32.64
2022-07-29T16:50:45.770Z,33.63
2022-07-29T16:53:12.439Z,33.70
2022-07-29T16:55:41.998Z,33.68
2022-07-29T16:58:09.801Z,34.04
2022-07-29T17:00:36.683Z,34.39
2022-07-29T17:03:03.718Z,35.15
2022-07-29T17:05:52.763Z,35.31
2022-07-29T17:08:17.672Z,36.06
2022-07-29T17:10:44.381Z,36.81
2022-07-29T17:13:11.041Z,36.54
2022-07-29T17:15:37.715Z,37.35
2022-07-29T17:18:12.453Z,37.98
2022-07-29T17:20:41.966Z,38.78
2022-07-29T17:23:08.815Z,39.25
2022-07-29T17:25:35.524Z,40.55
2022-07-29T17:28:02.192Z,41.72
2022-07-29T17:30:29.892Z,41.89
2022-07-29T17:32:56.549Z,42.48
2022-07-29T17:35:47.741Z,42.64
2022-07-29T17:38:14.356Z,44.12
2022-07-29T17:40:40.996Z,45.01
2022-07-29T17:43:09.315Z,45.32
2022-07-29T17:45:50.028Z,46.80
2022-07-29T17:48:17.127Z,46.75
2022-07-29T17:50:43.794Z,47.45
2022-07-29T17:53:16.355Z,48.05
2022-07-29T17:55:48.741Z,48.77
2022-07-29T17:58:15.939Z,49.03
2022-07-29T18:00:42.871Z,49.19
2022-07-29T18:03:09.880Z,48.92
2022-07-29T18:05:36.835Z,50.38
2022-07-29T18:08:03.677Z,50.87
2022-07-29T18:10:30.369Z,51.65
2022-07-29T18:12:57.045Z,52.13
2022-07-29T18:15:23.665Z,52.60
2022-07-29T18:17:56.725Z,53.24
2022-07-29T18:20:25.837Z,53.66
2022-07-29T18:22:52.837Z,54.72
2022-07-29T18:25:19.609Z,54.78
2022-07-29T18:27:46.334Z,55.30
2022-07-29T18:30:15.049Z,55.81
2022-07-29T18:32:54.326Z,55.73
2022-07-29T18:35:28.972Z,56.09
2022-07-29T18:38:00.664Z,55.79
2022-07-29T18:40:29.767Z,56.41
2022-07-29T18:42:56.978Z,56.50
2022-07-29T18:45:28.290Z,56.81
2022-07-29T18:47:56.428Z,56.99
2022-07-29T18:50:28.885Z,57.28
2022-07-29T18:52:59.137Z,56.49
2022-07-29T18:55:26.499Z,56.91
2022-07-29T18:57:55.874Z,57.77
2022-07-29T19:00:24.008Z,57.99
2022-07-29T19:02:50.853Z,58.24
2022-07-29T19:05:17.589Z,58.23
2022-07-29T19:07:44.221Z,58.33
2022-07-29T19:10:11.292Z,57.92
2022-07-29T19:12:37.987Z,57.89
2022-07-29T19:15:04.866Z,58.22
2022-07-29T19:17:31.516Z,58.51
2022-07-29T19:19:58.994Z,58.48
2022-07-29T19:22:26.159Z,58.69
2022-07-29T19:24:53.379Z,58.59
2022-07-29T19:27:20.048Z,58.78
2022-07-29T19:29:46.656Z,58.68
2022-07-29T19:32:14.533Z,58.96
2022-07-29T19:35:10.411Z,58.57
2022-07-29T19:37:37.501Z,58.44
2022-07-29T19:40:05.342Z,58.48
2022-07-29T19:42:31.947Z,58.49
2022-07-29T19:44:58.556Z,58.65
2022-07-29T19:47:25.160Z,58.89
2022-07-29T19:49:51.860Z,58.81
2022-07-29T19:52:18.484Z,59.07
2022-07-29T19:54:45.228Z,58.50
2022-07-29T19:57:11.839Z,58.86
2022-07-29T19:59:38.825Z,58.72
2022-07-29T20:02:05.849Z,58.85
2022-07-29T20:04:32.533Z,58.78
2022-07-29T20:07:01.893Z,59.24
2022-07-29T20:09:28.862Z,59.63
2022-07-29T20:11:55.624Z,59.61
2022-07-29T20:14:22.709Z,60.01
2022-07-29T20:16:50.677Z,60.40
2022-07-29T20:19:17.626Z,60.63
2022-07-29T20:21:44.323Z,61.12
2022-07-29T20:24:11.444Z,61.43
2022-07-29T20:26:38.320Z,61.23
2022-07-29T20:29:05.419Z,61.48
2022-07-29T20:31:33.054Z,61.15
2022-07-29T20:34:01.067Z,61.48
2022-07-29T20:36:28.899Z,61.04
2022-07-29T20:38:56.021Z,61.78
2022-07-29T20:41:23.300Z,61.26
2022-07-29T20:43:50.160Z,61.60
2022-07-29T20:46:18.247Z,62.33
2022-07-29T20:48:45.756Z,63.00
2022-07-29T20:51:12.863Z,62.96
2022-07-29T20:53:40.651Z,63.50
2022-07-29T20:56:07.784Z,63.68
2022-07-29T20:58:36.181Z,63.75
2022-07-29T21:01:03.245Z,63.82
2022-07-29T21:03:30.149Z,64.71
2022-07-29T21:05:57.083Z,64.11
2022-07-29T21:08:23.874Z,64.13
2022-07-29T21:10:50.526Z,64.71
2022-07-29T21:13:18.250Z,65.19
2022-07-29T21:15:48.417Z,65.17
2022-07-29T21:18:32.434Z,65.54
2022-07-29T21:21:04.683Z,66.36
2022-07-29T21:23:31.679Z,66.63
2022-07-29T21:25:58.938Z,67.04
2022-07-29T21:28:51.930Z,67.11
2022-07-29T21:31:18.698Z,67.40
2022-07-29T21:33:46.627Z,67.78
2022-07-29T21:36:47.196Z,67.76
2022-07-29T21:39:06.917Z,68.00
2022-07-29T21:41:34.821Z,68.18
2022-07-29T21:44:01.578Z,68.60
2022-07-29T21:46:28.362Z,68.92
2022-07-29T21:48:55.135Z,69.32
2022-07-29T21:51:27.575Z,69.17
2022-07-29T21:53:54.238Z,69.01
2022-07-29T21:56:22.626Z,69.45
2022-07-29T21:58:54.300Z,69.64
2022-07-29T22:01:20.969Z,69.89
2022-07-29T22:03:47.620Z,69.89
2022-07-29T22:06:17.948Z,69.88
2022-07-29T22:08:45.796Z,70.15
2022-07-29T22:11:12.997Z,70.29
2022-07-29T22:13:39.639Z,70.06
2022-07-29T22:16:06.680Z,70.63
2022-07-29T22:18:33.251Z,70.57
2022-07-29T22:20:59.847Z,70.35
2022-07-29T22:23:26.531Z,70.24
2022-07-29T22:25:53.156Z,69.66
2022-07-29T22:28:19.895Z,69.48
2022-07-29T22:30:46.643Z,69.41
2022-07-29T22:33:17.447Z,69.32
2022-07-29T22:35:48.682Z,69.22
2022-07-29T22:38:16.552Z,69.41
2022-07-29T22:40:43.781Z,69.90
2022-07-29T22:43:10.674Z,69.98
2022-07-29T22:45:37.383Z,70.08
2022-07-29T22:48:04.400Z,70.50
2022-07-29T22:50:31.121Z,69.62
2022-07-29T22:52:57.769Z,70.36
2022-07-29T22:55:24.383Z,70.87
2022-07-29T22:57:51.041Z,70.64
2022-07-29T23:00:17.950Z,70.52
2022-07-29T23:02:44.609Z,70.52
2022-07-29T23:05:15.816Z,70.85
2022-07-29T23:07:42.847Z,70.74
2022-07-29T23:10:09.975Z,71.48
2022-07-29T23:12:36.828Z,71.75
2022-07-29T23:15:04.705Z,71.79
2022-07-29T23:17:31.430Z,72.47
2022-07-29T23:20:03.137Z,72.56
2022-07-29T23:22:29.761Z,73.10
2022-07-29T23:24:58.762Z,73.66
2022-07-29T23:27:25.582Z,72.45
2022-07-29T23:29:52.199Z,73.05
2022-07-29T23:32:18.815Z,73.96
2022-07-29T23:34:45.413Z,73.57
2022-07-29T23:37:11.987Z,73.33
2022-07-29T23:39:38.612Z,73.64
2022-07-29T23:42:05.252Z,73.51
2022-07-29T23:44:31.874Z,73.05
2022-07-29T23:46:59.036Z,73.61
2022-07-29T23:49:25.839Z,73.10
2022-07-29T23:51:52.577Z,74.53
2022-07-29T23:54:19.333Z,74.98
2022-07-29T23:56:46.492Z,74.87
2022-07-29T23:59:13.203Z,75.28
